createdAt,value
2022-10-02T00:00:16.577Z,98.29
2022-10-02T00:01:16.618Z,98.19
2022-10-02T00:02:16.578Z,97.83
2022-10-02T00:03:16.559Z,97.63
2022-10-02T00:04:16.655Z,97.88
2022-10-02T00:05:16.540Z,97.73
2022-10-02T00:06:16.555Z,97.63
2022-10-02T00:07:16.534Z,98.55
2022-10-02T00:08:18.134Z,98.66
2022-10-02T00:09:16.517Z,98.66
2022-10-02T00:10:16.510Z,99.12
2022-10-02T00:11:16.527Z,99.12
2022-10-02T00:12:16.517Z,99.02
2022-10-02T00:13:16.512Z,98.87
2022-10-02T00:14:16.494Z,98.82
2022-10-02T00:15:16.486Z,98.87
2022-10-02T00:16:16.517Z,98.36
2022-10-02T00:17:16.461Z,98.36
2022-10-02T00:18:16.458Z,98.77
2022-10-02T00:19:16.465Z,98.83
2022-10-02T00:20:16.449Z,98.72
2022-10-02T00:21:16.469Z,98.62
2022-10-02T00:22:16.433Z,98.52
2022-10-02T00:23:16.421Z,98.11
2022-10-02T00:24:16.414Z,98.52
2022-10-02T00:25:16.429Z,98.62
2022-10-02T00:26:16.414Z,98.42
2022-10-02T00:27:16.401Z,97.75
2022-10-02T00:28:16.456Z,98.47
2022-10-02T00:29:16.379Z,98.07
2022-10-02T00:30:16.371Z,98.16
2022-10-02T00:31:16.464Z,97.61
2022-10-02T00:32:16.376Z,97.50
2022-10-02T00:33:16.354Z,95.81
2022-10-02T00:34:16.351Z,95.20
2022-10-02T00:35:16.347Z,94.99
2022-10-02T00:36:16.342Z,94.48
2022-10-02T00:37:16.351Z,94.68
2022-10-02T00:38:16.331Z,94.89
2022-10-02T00:39:16.327Z,94.48
2022-10-02T00:40:16.311Z,95.03
2022-10-02T00:41:16.324Z,94.93
2022-10-02T00:42:16.306Z,95.24
2022-10-02T00:43:16.331Z,94.98
2022-10-02T00:44:16.295Z,95.69
2022-10-02T00:45:16.307Z,95.03
2022-10-02T00:46:16.324Z,95.28
2022-10-02T00:47:16.283Z,94.77
2022-10-02T00:48:16.271Z,95.03
2022-10-02T00:49:16.301Z,95.28
2022-10-02T00:50:16.267Z,95.59
2022-10-02T00:51:16.242Z,95.79
2022-10-02T00:52:16.243Z,96.31
2022-10-02T00:53:16.230Z,96.04
2022-10-02T00:54:16.249Z,96.45
2022-10-02T00:55:16.212Z,96.87
2022-10-02T00:56:16.230Z,97.17
2022-10-02T00:57:16.201Z,97.99
2022-10-02T00:58:16.194Z,97.89
2022-10-02T00:59:16.186Z,97.69
2022-10-02T01:00:16.205Z,97.99
2022-10-02T01:01:16.320Z,98.25
2022-10-02T01:02:16.225Z,98.36
2022-10-02T01:03:16.164Z,97.95
2022-10-02T01:04:16.157Z,98.62
2022-10-02T01:05:16.150Z,98.72
2022-10-02T01:06:16.179Z,98.21
2022-10-02T01:07:16.124Z,98.93
2022-10-02T01:08:16.119Z,98.52
2022-10-02T01:09:16.121Z,97.70
2022-10-02T01:10:16.120Z,97.70
2022-10-02T01:11:16.101Z,97.60
2022-10-02T01:12:16.135Z,97.70
2022-10-02T01:13:16.101Z,97.91
2022-10-02T01:14:16.079Z,98.62
2022-10-02T01:15:16.076Z,98.27
2022-10-02T01:16:16.110Z,98.72
2022-10-02T01:17:16.092Z,98.16
2022-10-02T01:18:16.047Z,97.86
2022-10-02T01:19:16.042Z,96.94
2022-10-02T01:20:16.048Z,96.53
2022-10-02T01:21:16.057Z,96.73
2022-10-02T01:22:16.031Z,95.81
2022-10-02T01:23:16.040Z,95.81
2022-10-02T01:24:16.035Z,95.81
2022-10-02T01:25:16.014Z,95.61
2022-10-02T01:26:16.007Z,95.61
2022-10-02T01:27:16.002Z,96.22
2022-10-02T01:28:16.048Z,96.01
2022-10-02T01:29:15.982Z,96.22
2022-10-02T01:30:16.000Z,96.22
2022-10-02T01:31:16.088Z,95.81
2022-10-02T01:32:15.970Z,95.61
2022-10-02T01:33:15.968Z,95.54
2022-10-02T01:34:15.954Z,95.81
2022-10-02T01:35:15.935Z,95.50
2022-10-02T01:36:15.978Z,95.50
2022-10-02T01:37:15.931Z,95.24
2022-10-02T01:38:15.954Z,95.14
2022-10-02T01:39:15.907Z,95.14
2022-10-02T01:40:15.905Z,94.78
2022-10-02T01:41:15.897Z,94.93
2022-10-02T01:42:15.885Z,95.54
2022-10-02T01:43:15.910Z,95.54
2022-10-02T01:44:15.880Z,95.65
2022-10-02T01:45:15.878Z,95.65
2022-10-02T01:46:15.936Z,95.65
2022-10-02T01:47:15.854Z,95.54
2022-10-02T01:48:15.858Z,95.24
2022-10-02T01:49:15.860Z,96.10
2022-10-02T01:50:15.838Z,95.95
2022-10-02T01:51:15.833Z,95.75
2022-10-02T01:52:15.827Z,95.59
2022-10-02T01:53:15.819Z,96.10
2022-10-02T01:54:15.812Z,96.20
2022-10-02T01:55:15.824Z,96.20
2022-10-02T01:56:15.795Z,96.10
2022-10-02T01:57:15.817Z,96.51
2022-10-02T01:58:15.785Z,96.45
2022-10-02T01:59:15.771Z,96.31
2022-10-02T02:00:15.776Z,95.69
2022-10-02T02:01:15.842Z,96.20
2022-10-02T02:02:15.796Z,96.66
2022-10-02T02:03:15.750Z,96.62
2022-10-02T02:04:15.741Z,96.56
2022-10-02T02:05:15.728Z,96.10
2022-10-02T02:06:15.735Z,96.00
2022-10-02T02:07:15.746Z,96.20
2022-10-02T02:08:15.723Z,96.82
2022-10-02T02:09:15.702Z,96.25
2022-10-02T02:10:15.702Z,96.25
2022-10-02T02:11:15.725Z,96.41
2022-10-02T02:12:15.696Z,96.41
2022-10-02T02:13:15.689Z,96.92
2022-10-02T02:14:15.677Z,97.54
2022-10-02T02:15:15.674Z,97.54
2022-10-02T02:16:15.709Z,97.95
2022-10-02T02:17:15.662Z,97.85
2022-10-02T02:18:15.655Z,96.45
2022-10-02T02:19:15.652Z,96.72
2022-10-02T02:20:15.659Z,96.97
2022-10-02T02:21:15.637Z,98.10
2022-10-02T02:22:15.627Z,97.58
2022-10-02T02:23:15.618Z,98.20
2022-10-02T02:24:15.619Z,98.41
2022-10-02T02:25:15.598Z,98.46
2022-10-02T02:26:15.623Z,98.05
2022-10-02T02:27:15.582Z,98.05
2022-10-02T02:28:15.684Z,97.95
2022-10-02T02:29:15.573Z,96.41
2022-10-02T02:30:15.569Z,96.72
2022-10-02T02:31:15.625Z,96.57
2022-10-02T02:32:15.565Z,96.62
2022-10-02T02:33:15.575Z,96.72
2022-10-02T02:34:15.553Z,96.51
2022-10-02T02:35:15.547Z,97.44
2022-10-02T02:36:15.534Z,97.95
2022-10-02T02:37:15.536Z,97.95
2022-10-02T02:38:15.517Z,97.44
2022-10-02T02:39:15.534Z,97.85
2022-10-02T02:40:15.501Z,97.74
2022-10-02T02:41:15.514Z,97.74
2022-10-02T02:42:17.836Z,97.64
2022-10-02T02:43:15.517Z,97.64
2022-10-02T02:44:15.477Z,97.80
2022-10-02T02:45:15.465Z,97.29
2022-10-02T02:46:15.506Z,96.57
2022-10-02T02:47:15.451Z,96.37
2022-10-02T02:48:15.468Z,96.26
2022-10-02T02:49:15.437Z,96.98
2022-10-02T02:50:15.433Z,96.16
2022-10-02T02:51:15.433Z,96.37
2022-10-02T02:52:15.454Z,96.67
2022-10-02T02:53:15.445Z,95.86
2022-10-02T02:54:15.405Z,96.57
2022-10-02T02:55:15.406Z,96.16
2022-10-02T02:56:15.434Z,96.16
2022-10-02T02:57:15.395Z,96.78
2022-10-02T02:58:15.392Z,96.98
2022-10-02T02:59:15.374Z,96.57
2022-10-02T03:00:15.376Z,96.57
2022-10-02T03:01:15.453Z,96.57
2022-10-02T03:02:15.393Z,96.78
2022-10-02T03:03:15.366Z,96.67
2022-10-02T03:04:15.356Z,96.67
2022-10-02T03:05:15.361Z,96.98
2022-10-02T03:06:15.353Z,96.88
2022-10-02T03:07:15.354Z,96.88
2022-10-02T03:08:15.330Z,96.67
2022-10-02T03:09:15.329Z,96.67
2022-10-02T03:10:15.315Z,96.98
2022-10-02T03:11:15.318Z,96.94
2022-10-02T03:12:15.328Z,96.98
2022-10-02T03:13:15.305Z,97.39
2022-10-02T03:14:15.293Z,97.49
2022-10-02T03:15:15.289Z,97.29
2022-10-02T03:16:15.330Z,96.98
2022-10-02T03:17:15.302Z,97.23
2022-10-02T03:18:15.280Z,98.00
2022-10-02T03:19:15.268Z,97.80
2022-10-02T03:20:15.259Z,97.70
2022-10-02T03:21:15.248Z,97.49
2022-10-02T03:22:15.250Z,97.80
2022-10-02T03:23:15.263Z,97.70
2022-10-02T03:24:15.258Z,97.60
2022-10-02T03:25:15.245Z,97.64
2022-10-02T03:26:15.228Z,97.60
2022-10-02T03:27:15.218Z,97.54
2022-10-02T03:28:15.256Z,97.70
2022-10-02T03:29:15.213Z,97.91
2022-10-02T03:30:15.213Z,97.80
2022-10-02T03:31:15.248Z,97.70
2022-10-02T03:32:15.192Z,97.80
2022-10-02T03:33:15.184Z,97.91
2022-10-02T03:34:15.171Z,97.49
2022-10-02T03:35:15.162Z,97.74
2022-10-02T03:36:15.166Z,97.49
2022-10-02T03:37:15.187Z,97.60
2022-10-02T03:38:15.147Z,98.11
2022-10-02T03:39:30.466Z,98.05
2022-10-02T03:40:16.137Z,98.05
2022-10-02T03:41:15.126Z,98.05
2022-10-02T03:42:15.125Z,98.11
2022-10-02T03:43:15.134Z,98.57
2022-10-02T03:44:15.108Z,98.46
2022-10-02T03:45:32.767Z,98.57
2022-10-02T03:46:16.160Z,98.16
2022-10-02T03:47:15.115Z,98.46
2022-10-02T03:48:15.085Z,98.46
2022-10-02T03:49:15.079Z,98.36
2022-10-02T03:50:15.089Z,98.36
2022-10-02T03:51:15.063Z,98.11
2022-10-02T03:52:15.063Z,98.21
2022-10-02T03:53:15.073Z,97.91
2022-10-02T03:54:15.049Z,97.91
2022-10-02T03:55:15.040Z,97.60
2022-10-02T03:56:15.062Z,97.80
2022-10-02T03:57:15.033Z,97.70
2022-10-02T03:58:15.029Z,97.65
2022-10-02T03:59:15.015Z,97.55
2022-10-02T04:00:15.036Z,97.86
2022-10-02T04:01:15.041Z,97.91
2022-10-02T04:02:15.036Z,98.07
2022-10-02T04:03:15.045Z,98.37
2022-10-02T04:04:14.995Z,98.42
2022-10-02T04:05:14.995Z,98.58
2022-10-02T04:06:14.981Z,98.16
2022-10-02T04:07:14.962Z,98.27
2022-10-02T04:08:14.959Z,98.07
2022-10-02T04:09:14.977Z,98.07
2022-10-02T04:10:14.948Z,98.16
2022-10-02T04:11:14.941Z,98.37
2022-10-02T04:12:14.948Z,98.52
2022-10-02T04:13:14.941Z,98.37
2022-10-02T04:14:14.922Z,98.42
2022-10-02T04:15:14.941Z,98.27
2022-10-02T04:16:14.957Z,98.07
2022-10-02T04:17:14.903Z,98.27
2022-10-02T04:18:14.899Z,98.27
2022-10-02T04:19:14.886Z,97.75
2022-10-02T04:20:14.887Z,97.71
2022-10-02T04:21:14.913Z,97.50
2022-10-02T04:22:14.869Z,97.40
2022-10-02T04:23:14.855Z,97.50
2022-10-02T04:24:14.854Z,97.30
2022-10-02T04:25:14.847Z,97.56
2022-10-02T04:26:14.849Z,97.15
2022-10-02T04:27:14.849Z,97.71
2022-10-02T04:28:14.910Z,97.66
2022-10-02T04:29:14.823Z,97.81
2022-10-02T04:30:14.819Z,97.81
2022-10-02T04:31:14.862Z,97.71
2022-10-02T04:32:14.832Z,98.22
2022-10-02T04:33:14.797Z,97.71
2022-10-02T04:34:14.797Z,97.81
2022-10-02T04:35:14.802Z,98.02
2022-10-02T04:36:14.784Z,97.91
2022-10-02T04:37:14.762Z,98.33
2022-10-02T04:38:14.757Z,98.12
2022-10-02T04:39:14.772Z,98.02
2022-10-02T04:40:14.739Z,97.81
2022-10-02T04:41:14.792Z,98.33
2022-10-02T04:42:14.736Z,98.43
2022-10-02T04:43:14.729Z,98.74
2022-10-02T04:44:14.721Z,98.53
2022-10-02T04:45:14.715Z,98.58
2022-10-02T04:46:14.727Z,98.58
2022-10-02T04:47:14.725Z,98.90
2022-10-02T04:48:14.697Z,99.10
2022-10-02T04:49:14.681Z,99.91
2022-10-02T04:50:14.677Z,98.90
2022-10-02T04:51:14.677Z,98.69
2022-10-02T04:52:14.723Z,98.38
2022-10-02T04:53:14.719Z,98.58
2022-10-02T04:54:14.658Z,98.18
2022-10-02T04:55:14.646Z,98.33
2022-10-02T04:56:14.643Z,98.79
2022-10-02T04:57:14.629Z,98.74
2022-10-02T04:58:14.653Z,98.69
2022-10-02T04:59:14.632Z,98.63
2022-10-02T05:00:14.617Z,99.20
2022-10-02T05:01:14.682Z,99.35
2022-10-02T05:02:14.682Z,99.82
2022-10-02T05:03:14.594Z,99.10
2022-10-02T05:04:14.594Z,99.71
2022-10-02T05:05:14.600Z,99.82
2022-10-02T05:06:14.586Z,99.71
2022-10-02T05:07:14.589Z,99.25
2022-10-02T05:08:14.573Z,99.82
2022-10-02T05:09:14.566Z,99.91
2022-10-02T05:10:14.549Z,99.86
2022-10-02T05:11:14.552Z,99.99
2022-10-02T05:12:14.569Z,99.76
2022-10-02T05:13:14.534Z,99.61
2022-10-02T05:14:14.565Z,99.91
2022-10-02T05:15:14.514Z,99.99
2022-10-02T05:16:14.569Z,99.71
2022-10-02T05:17:14.508Z,99.20
2022-10-02T05:18:17.855Z,99.30
2022-10-02T05:19:14.505Z,98.90
2022-10-02T05:20:14.489Z,98.49
2022-10-02T05:21:14.488Z,99.10
2022-10-02T05:22:14.476Z,98.95
2022-10-02T05:23:14.475Z,99.20
2022-10-02T05:24:14.487Z,99.71
2022-10-02T05:25:14.471Z,99.10
2022-10-02T05:26:14.679Z,99.82
2022-10-02T05:27:14.468Z,98.95
2022-10-02T05:28:14.460Z,98.95
2022-10-02T05:29:14.434Z,98.85
2022-10-02T05:30:14.448Z,98.44
2022-10-02T05:31:14.461Z,98.60
2022-10-02T05:32:14.414Z,98.24
2022-10-02T05:33:14.421Z,98.70
2022-10-02T05:34:14.398Z,98.24
2022-10-02T05:35:14.409Z,97.98
2022-10-02T05:36:14.389Z,98.29
2022-10-02T05:37:14.379Z,98.19
2022-10-02T05:38:14.373Z,98.19
2022-10-02T05:39:14.363Z,98.29
2022-10-02T05:40:14.359Z,98.49
2022-10-02T05:41:14.382Z,98.70
2022-10-02T05:42:14.334Z,98.39
2022-10-02T05:43:14.330Z,97.98
2022-10-02T05:44:14.324Z,98.08
2022-10-02T05:45:14.316Z,97.88
2022-10-02T05:46:14.358Z,98.29
2022-10-02T05:47:14.325Z,97.98
2022-10-02T05:48:14.295Z,98.08
2022-10-02T05:49:14.284Z,98.08
2022-10-02T05:50:14.282Z,97.78
2022-10-02T05:51:14.271Z,97.78
2022-10-02T05:52:14.271Z,97.88
2022-10-02T05:53:14.282Z,97.88
2022-10-02T05:54:14.252Z,98.08
2022-10-02T05:55:14.246Z,97.47
2022-10-02T05:56:14.244Z,98.08
2022-10-02T05:57:14.233Z,97.88
2022-10-02T05:58:14.245Z,97.63
2022-10-02T05:59:14.224Z,98.14
2022-10-02T06:00:14.215Z,97.74
2022-10-02T06:01:14.238Z,97.63
2022-10-02T06:02:14.225Z,97.53
2022-10-02T06:03:14.184Z,97.83
2022-10-02T06:04:14.212Z,97.69
2022-10-02T06:05:14.176Z,98.14
2022-10-02T06:06:14.177Z,97.42
2022-10-02T06:07:14.163Z,97.99
2022-10-02T06:08:14.183Z,97.58
2022-10-02T06:09:19.008Z,97.54
2022-10-02T06:10:14.146Z,98.50
2022-10-02T06:11:14.140Z,97.95
2022-10-02T06:12:14.155Z,98.05
2022-10-02T06:13:14.156Z,98.15
2022-10-02T06:14:14.145Z,98.15
2022-10-02T06:15:14.115Z,98.72
2022-10-02T06:16:14.162Z,98.56
2022-10-02T06:17:14.096Z,98.56
2022-10-02T06:18:14.105Z,99.54
2022-10-02T06:19:14.077Z,99.64
2022-10-02T06:20:14.072Z,99.33
2022-10-02T06:21:14.070Z,99.54
2022-10-02T06:22:14.064Z,98.72
2022-10-02T06:23:14.072Z,98.21
2022-10-02T06:24:14.053Z,98.36
2022-10-02T06:25:14.049Z,98.72
2022-10-02T06:26:14.038Z,98.98
2022-10-02T06:27:14.031Z,98.77
2022-10-02T06:28:14.122Z,98.36
2022-10-02T06:29:18.644Z,98.57
2022-10-02T06:30:14.011Z,98.27
2022-10-02T06:31:14.062Z,98.68
2022-10-02T06:32:14.000Z,98.68
2022-10-02T06:33:13.984Z,98.06
2022-10-02T06:34:14.003Z,98.68
2022-10-02T06:35:13.963Z,98.68
2022-10-02T06:36:13.961Z,98.47
2022-10-02T06:37:13.953Z,98.47
2022-10-02T06:38:13.946Z,98.36
2022-10-02T06:39:13.963Z,97.71
2022-10-02T06:40:13.938Z,97.91
2022-10-02T06:41:13.930Z,97.81
2022-10-02T06:42:13.921Z,98.11
2022-10-02T06:43:13.907Z,98.22
2022-10-02T06:44:13.903Z,98.02
2022-10-02T06:45:13.921Z,98.63
2022-10-02T06:46:14.047Z,98.02
2022-10-02T06:47:13.878Z,98.02
2022-10-02T06:48:13.874Z,97.91
2022-10-02T06:49:13.873Z,97.81
2022-10-02T06:50:13.874Z,97.91
2022-10-02T06:51:13.869Z,97.77
2022-10-02T06:52:13.847Z,97.71
2022-10-02T06:53:13.840Z,98.02
2022-10-02T06:54:13.838Z,97.81
2022-10-02T06:55:13.824Z,97.66
2022-10-02T06:56:13.848Z,97.30
2022-10-02T06:57:13.807Z,96.95
2022-10-02T06:58:13.817Z,96.95
2022-10-02T06:59:13.802Z,96.84
2022-10-02T07:00:13.794Z,97.36
2022-10-02T07:01:13.866Z,97.16
2022-10-02T07:02:13.803Z,97.77
2022-10-02T07:03:13.784Z,97.77
2022-10-02T07:04:13.772Z,97.56
2022-10-02T07:05:13.756Z,97.62
2022-10-02T07:06:13.747Z,97.87
2022-10-02T07:07:13.757Z,97.66
2022-10-02T07:08:13.732Z,97.87
2022-10-02T07:09:13.728Z,98.58
2022-10-02T07:10:13.721Z,98.58
2022-10-02T07:11:13.715Z,98.63
2022-10-02T07:12:13.722Z,99.60
2022-10-02T07:13:13.696Z,99.34
2022-10-02T07:14:13.693Z,99.50
2022-10-02T07:15:13.698Z,99.29
2022-10-02T07:16:13.744Z,99.24
2022-10-02T07:17:13.677Z,99.40
2022-10-02T07:18:13.659Z,99.40
2022-10-02T07:19:13.655Z,99.29
2022-10-02T07:20:13.640Z,99.40
2022-10-02T07:21:13.656Z,99.50
2022-10-02T07:22:39.621Z,98.58
2022-10-02T07:23:14.655Z,98.27
2022-10-02T07:24:13.628Z,98.02
2022-10-02T07:25:13.619Z,98.02
2022-10-02T07:26:13.608Z,98.23
2022-10-02T07:27:13.602Z,98.54
2022-10-02T07:28:13.608Z,98.54
2022-10-02T07:29:13.606Z,98.02
2022-10-02T07:30:13.572Z,98.33
2022-10-02T07:31:13.645Z,98.23
2022-10-02T07:32:13.556Z,98.23
2022-10-02T07:33:13.565Z,98.23
2022-10-02T07:34:13.553Z,98.64
2022-10-02T07:35:13.532Z,98.84
2022-10-02T07:36:13.570Z,99.60
2022-10-02T07:37:13.517Z,98.64
2022-10-02T07:38:13.509Z,98.43
2022-10-02T07:39:13.500Z,98.33
2022-10-02T07:40:13.502Z,98.43
2022-10-02T07:41:13.490Z,97.62
2022-10-02T07:42:13.504Z,97.62
2022-10-02T07:43:13.523Z,97.82
2022-10-02T07:44:13.488Z,97.31
2022-10-02T07:45:13.460Z,97.21
2022-10-02T07:46:13.516Z,97.92
2022-10-02T07:47:13.452Z,98.54
2022-10-02T07:48:13.444Z,98.43
2022-10-02T07:49:13.460Z,98.33
2022-10-02T07:50:13.430Z,97.82
2022-10-02T07:51:14.648Z,98.13
2022-10-02T07:52:13.431Z,97.88
2022-10-02T07:53:13.409Z,97.88
2022-10-02T07:54:13.394Z,97.47
2022-10-02T07:55:13.411Z,97.06
2022-10-02T07:56:13.390Z,98.13
2022-10-02T07:57:13.385Z,98.64
2022-10-02T07:58:13.369Z,99.15
2022-10-02T07:59:13.366Z,99.35
2022-10-02T08:00:13.386Z,98.43
2022-10-02T08:01:13.340Z,98.33
2022-10-02T08:02:13.573Z,98.13
2022-10-02T08:03:13.374Z,98.28
2022-10-02T08:04:13.335Z,97.88
2022-10-02T08:05:13.318Z,97.88
2022-10-02T08:06:13.334Z,97.57
2022-10-02T08:07:13.309Z,97.67
2022-10-02T08:08:13.302Z,97.16
2022-10-02T08:09:13.291Z,96.71
2022-10-02T08:10:13.328Z,97.02
2022-10-02T08:11:13.296Z,96.97
2022-10-02T08:12:13.277Z,95.81
2022-10-02T08:13:13.258Z,95.36
2022-10-02T08:14:13.254Z,93.89
2022-10-02T08:15:13.242Z,93.79
2022-10-02T08:16:13.295Z,92.68
2022-10-02T08:17:13.248Z,92.48
2022-10-02T08:18:33.239Z,91.83
2022-10-02T08:19:14.217Z,91.38
2022-10-02T08:20:13.221Z,91.38
2022-10-02T08:21:13.204Z,90.12
2022-10-02T08:22:13.216Z,87.05
2022-10-02T08:23:13.186Z,83.18
2022-10-02T08:24:13.186Z,81.46
2022-10-02T08:25:13.185Z,83.20
2022-10-02T08:26:13.192Z,79.83
2022-10-02T08:27:13.154Z,78.09
2022-10-02T08:28:13.169Z,80.29
2022-10-02T08:29:13.159Z,82.04
2022-10-02T08:30:13.152Z,82.45
2022-10-02T08:31:13.156Z,82.69
2022-10-02T08:32:13.141Z,83.64
2022-10-02T08:33:13.135Z,84.69
2022-10-02T08:34:13.165Z,85.94
2022-10-02T08:35:13.119Z,86.39
2022-10-02T08:36:13.102Z,87.34
2022-10-02T08:37:13.087Z,87.24
2022-10-02T08:38:13.106Z,87.28
2022-10-02T08:39:13.081Z,88.60
2022-10-02T08:40:13.064Z,89.04
2022-10-02T08:41:13.087Z,89.45
2022-10-02T08:42:13.052Z,89.35
2022-10-02T08:43:13.102Z,89.39
2022-10-02T08:44:13.032Z,89.90
2022-10-02T08:45:13.018Z,90.75
2022-10-02T08:46:13.094Z,90.96
2022-10-02T08:47:13.004Z,91.47
2022-10-02T08:48:12.991Z,91.71
2022-10-02T08:49:12.991Z,91.41
2022-10-02T08:50:12.983Z,91.91
2022-10-02T08:51:12.975Z,92.32
2022-10-02T08:52:12.987Z,92.22
2022-10-02T08:53:12.978Z,92.57
2022-10-02T08:54:13.488Z,92.42
2022-10-02T08:55:12.947Z,92.77
2022-10-02T08:56:16.422Z,92.77
2022-10-02T08:57:12.937Z,93.03
2022-10-02T08:58:12.976Z,92.97
2022-10-02T08:59:12.939Z,93.07
2022-10-02T09:00:12.902Z,93.48
2022-10-02T09:01:12.940Z,93.07
2022-10-02T09:02:12.944Z,92.52
2022-10-02T09:03:12.889Z,93.13
2022-10-02T09:04:12.956Z,93.13
2022-10-02T09:05:12.892Z,92.93
2022-10-02T09:06:12.875Z,92.63
2022-10-02T09:07:12.868Z,92.93
2022-10-02T09:08:12.836Z,92.72
2022-10-02T09:09:12.835Z,93.03
2022-10-02T09:10:12.828Z,92.72
2022-10-02T09:11:12.813Z,92.72
2022-10-02T09:12:12.819Z,93.03
2022-10-02T09:13:12.834Z,93.03
2022-10-02T09:14:12.792Z,93.03
2022-10-02T09:15:12.798Z,93.09
2022-10-02T09:16:12.829Z,93.09
2022-10-02T09:17:12.772Z,92.38
2022-10-02T09:18:12.802Z,92.48
2022-10-02T09:19:12.756Z,93.29
2022-10-02T09:20:12.759Z,92.79
2022-10-02T09:21:12.748Z,92.48
2022-10-02T09:22:12.737Z,92.68
2022-10-02T09:23:12.747Z,92.48
2022-10-02T09:24:12.735Z,93.40
2022-10-02T09:25:12.719Z,93.49
2022-10-02T09:26:12.711Z,93.19
2022-10-02T09:27:12.711Z,93.19
2022-10-02T09:28:12.759Z,93.29
2022-10-02T09:29:12.678Z,93.09
2022-10-02T09:30:12.675Z,93.40
2022-10-02T09:31:12.683Z,92.79
2022-10-02T09:32:12.664Z,92.28
2022-10-02T09:33:15.842Z,92.64
2022-10-02T09:34:12.675Z,92.33
2022-10-02T09:35:12.655Z,92.54
2022-10-02T09:36:12.633Z,92.54
2022-10-02T09:37:12.615Z,92.94
2022-10-02T09:38:12.609Z,92.79
2022-10-02T09:39:12.606Z,92.68
2022-10-02T09:40:12.625Z,92.58
2022-10-02T09:41:12.591Z,92.58
2022-10-02T09:42:12.581Z,93.19
2022-10-02T09:43:12.574Z,93.09
2022-10-02T09:44:12.561Z,93.09
2022-10-02T09:45:12.562Z,92.89
2022-10-02T09:46:12.698Z,93.60
2022-10-02T09:47:12.553Z,93.70
2022-10-02T09:48:12.542Z,93.70
2022-10-02T09:49:12.529Z,92.99
2022-10-02T09:50:12.514Z,93.19
2022-10-02T09:51:12.518Z,93.19
2022-10-02T09:52:12.537Z,92.68
2022-10-02T09:53:12.502Z,93.09
2022-10-02T09:54:12.490Z,92.89
2022-10-02T09:55:12.484Z,92.38
2022-10-02T09:56:12.476Z,92.28
2022-10-02T09:57:12.502Z,92.28
2022-10-02T09:58:12.476Z,92.58
2022-10-02T09:59:12.481Z,92.58
2022-10-02T10:00:12.437Z,92.89
2022-10-02T10:01:12.475Z,93.19
2022-10-02T10:02:12.503Z,92.99
2022-10-02T10:03:12.438Z,92.68
2022-10-02T10:04:12.432Z,92.79
2022-10-02T10:05:12.427Z,91.97
2022-10-02T10:06:12.408Z,91.32
2022-10-02T10:07:13.384Z,91.67
2022-10-02T10:08:12.383Z,91.83
2022-10-02T10:09:12.393Z,90.92
2022-10-02T10:10:12.379Z,90.61
2022-10-02T10:11:12.356Z,91.12
2022-10-02T10:12:12.354Z,90.97
2022-10-02T10:13:12.383Z,91.12
2022-10-02T10:14:12.347Z,90.71
2022-10-02T10:15:12.328Z,90.31
2022-10-02T10:16:12.367Z,90.11
2022-10-02T10:17:12.303Z,90.11
2022-10-02T10:18:12.295Z,90.51
2022-10-02T10:19:12.327Z,90.47
2022-10-02T10:20:12.336Z,90.36
2022-10-02T10:21:12.277Z,90.81
2022-10-02T10:22:12.272Z,90.47
2022-10-02T10:23:12.261Z,90.97
2022-10-02T10:24:12.263Z,90.88
2022-10-02T10:25:12.269Z,90.77
2022-10-02T10:26:12.269Z,90.47
2022-10-02T10:27:12.232Z,90.51
2022-10-02T10:28:19.296Z,90.06
2022-10-02T10:29:12.232Z,90.11
2022-10-02T10:30:12.270Z,90.20
2022-10-02T10:31:12.303Z,90.20
2022-10-02T10:32:12.190Z,90.11
2022-10-02T10:33:12.184Z,90.81
2022-10-02T10:34:12.178Z,90.06
2022-10-02T10:35:12.168Z,90.06
2022-10-02T10:36:12.194Z,90.77
2022-10-02T10:37:12.155Z,90.06
2022-10-02T10:38:12.152Z,89.86
2022-10-02T10:39:12.140Z,89.55
2022-10-02T10:40:12.152Z,89.76
2022-10-02T10:41:12.149Z,89.96
2022-10-02T10:42:12.115Z,89.76
2022-10-02T10:43:16.465Z,89.65
2022-10-02T10:44:12.095Z,89.35
2022-10-02T10:45:12.101Z,89.31
2022-10-02T10:46:12.137Z,88.90
2022-10-02T10:47:12.078Z,89.31
2022-10-02T10:48:12.070Z,89.51
2022-10-02T10:49:12.077Z,89.11
2022-10-02T10:50:12.057Z,88.66
2022-10-02T10:51:12.044Z,88.56
2022-10-02T10:52:12.041Z,87.74
2022-10-02T10:53:12.025Z,87.51
2022-10-02T10:54:12.053Z,87.71
2022-10-02T10:55:12.033Z,87.36
2022-10-02T10:56:12.040Z,87.16
2022-10-02T10:57:11.999Z,86.25
2022-10-02T10:58:11.990Z,86.00
2022-10-02T10:59:11.980Z,85.64
2022-10-02T11:00:11.991Z,87.36
2022-10-02T11:01:12.034Z,85.74
2022-10-02T11:02:12.033Z,85.80
2022-10-02T11:03:11.966Z,86.21
2022-10-02T11:04:11.945Z,85.60
2022-10-02T11:05:11.930Z,85.90
2022-10-02T11:06:11.918Z,85.90
2022-10-02T11:07:11.921Z,86.00
2022-10-02T11:08:11.919Z,85.90
2022-10-02T11:09:11.921Z,85.66
2022-10-02T11:10:11.887Z,85.70
2022-10-02T11:11:11.878Z,85.54
2022-10-02T11:12:11.875Z,86.51
2022-10-02T11:13:11.875Z,87.12
2022-10-02T11:14:11.854Z,84.99
2022-10-02T11:15:11.879Z,85.70
2022-10-02T11:16:11.872Z,85.90
2022-10-02T11:17:11.831Z,85.80
2022-10-02T11:18:11.838Z,86.07
2022-10-02T11:19:11.842Z,85.39
2022-10-02T11:20:11.838Z,85.10
2022-10-02T11:21:11.807Z,85.54
2022-10-02T11:22:11.791Z,85.90
2022-10-02T11:23:11.794Z,85.44
2022-10-02T11:24:11.789Z,85.84
2022-10-02T11:25:13.087Z,85.74
2022-10-02T11:26:11.802Z,87.26
2022-10-02T11:27:11.759Z,87.51
2022-10-02T11:28:11.792Z,86.96
2022-10-02T11:29:11.743Z,87.36
2022-10-02T11:30:11.762Z,85.84
2022-10-02T11:31:11.820Z,85.94
2022-10-02T11:32:11.709Z,85.58
2022-10-02T11:33:11.707Z,86.69
2022-10-02T11:34:11.733Z,85.78
2022-10-02T11:35:11.714Z,86.90
2022-10-02T11:36:11.694Z,86.90
2022-10-02T11:37:11.671Z,86.39
2022-10-02T11:38:11.691Z,85.78
2022-10-02T11:39:11.660Z,85.68
2022-10-02T11:40:11.648Z,86.39
2022-10-02T11:41:11.641Z,85.58
2022-10-02T11:42:11.639Z,85.94
2022-10-02T11:43:11.627Z,86.19
2022-10-02T11:44:11.650Z,85.99
2022-10-02T11:45:11.615Z,85.99
2022-10-02T11:46:11.679Z,86.19
2022-10-02T11:47:11.591Z,85.68
2022-10-02T11:48:11.601Z,85.84
2022-10-02T11:49:11.603Z,85.24
2022-10-02T11:50:11.612Z,85.54
2022-10-02T11:51:11.564Z,85.84
2022-10-02T11:52:11.563Z,86.05
2022-10-02T11:53:11.558Z,85.13
2022-10-02T11:54:11.549Z,85.60
2022-10-02T11:55:11.531Z,85.74
2022-10-02T11:56:11.580Z,85.74
2022-10-02T11:57:11.532Z,85.54
2022-10-02T11:58:11.524Z,85.54
2022-10-02T11:59:11.522Z,85.64
2022-10-02T12:00:11.502Z,85.48
2022-10-02T12:01:11.490Z,86.15
2022-10-02T12:02:15.606Z,86.25
2022-10-02T12:03:11.559Z,85.64
2022-10-02T12:04:11.473Z,85.99
2022-10-02T12:05:11.492Z,86.19
2022-10-02T12:06:11.481Z,86.29
2022-10-02T12:07:11.446Z,85.68
2022-10-02T12:08:11.446Z,86.05
2022-10-02T12:09:11.434Z,85.64
2022-10-02T12:10:11.424Z,86.05
2022-10-02T12:11:11.445Z,85.94
2022-10-02T12:12:11.402Z,86.21
2022-10-02T12:13:11.381Z,85.80
2022-10-02T12:14:11.385Z,85.90
2022-10-02T12:15:11.376Z,86.10
2022-10-02T12:16:11.449Z,85.56
2022-10-02T12:17:11.389Z,84.04
2022-10-02T12:18:11.347Z,83.88
2022-10-02T12:19:11.361Z,84.45
2022-10-02T12:20:11.351Z,84.14
2022-10-02T12:21:11.336Z,85.16
2022-10-02T12:22:11.326Z,83.84
2022-10-02T12:23:11.332Z,82.83
2022-10-02T12:24:11.347Z,83.37
2022-10-02T12:25:11.315Z,83.94
2022-10-02T12:26:11.284Z,83.47
2022-10-02T12:27:11.278Z,83.78
2022-10-02T12:28:11.320Z,83.61
2022-10-02T12:29:11.274Z,83.27
2022-10-02T12:30:11.269Z,82.22
2022-10-02T12:31:11.250Z,82.26
2022-10-02T12:32:11.278Z,82.53
2022-10-02T12:33:11.237Z,82.02
2022-10-02T12:34:11.264Z,81.17
2022-10-02T12:35:11.227Z,80.97
2022-10-02T12:36:11.206Z,79.41
2022-10-02T12:37:11.192Z,80.12
2022-10-02T12:38:11.201Z,78.37
2022-10-02T12:39:11.180Z,79.85
2022-10-02T12:40:11.204Z,77.69
2022-10-02T12:41:11.180Z,76.78
2022-10-02T12:42:11.172Z,77.28
2022-10-02T12:43:11.173Z,77.28
2022-10-02T12:44:11.140Z,77.49
2022-10-02T12:45:12.042Z,76.18
2022-10-02T12:46:11.183Z,77.86
2022-10-02T12:47:11.132Z,78.06
2022-10-02T12:48:11.117Z,77.11
2022-10-02T12:49:11.111Z,76.00
2022-10-02T12:50:11.135Z,74.79
2022-10-02T12:51:11.086Z,74.02
2022-10-02T12:52:11.102Z,73.99